createdAt,value
2019-01-27T00:01:37.527Z,10.87
2019-01-27T00:03:44.486Z,11.60
2019-01-27T00:05:53.576Z,12.30
2019-01-27T00:08:01.966Z,16.53
2019-01-27T00:10:10.732Z,12.30
2019-01-27T00:12:20.743Z,9.80
2019-01-27T00:14:26.782Z,14.47
2019-01-27T00:16:35.639Z,9.33
2019-01-27T00:18:44.462Z,11.67
2019-01-27T00:20:53.106Z,9.43
2019-01-27T00:23:02.478Z,11.73
2019-01-27T00:25:12.555Z,9.73
2019-01-27T00:27:21.562Z,8.63
2019-01-27T00:29:30.344Z,11.23
2019-01-27T00:31:40.342Z,9.50
2019-01-27T00:33:53.478Z,6.37
2019-01-27T00:36:05.873Z,13.23
2019-01-27T00:38:13.382Z,13.37
2019-01-27T00:40:22.289Z,14.13
2019-01-27T00:42:35.884Z,13.40
2019-01-27T00:44:44.354Z,13.97
2019-01-27T00:46:54.603Z,14.70
2019-01-27T00:49:04.618Z,13.63
2019-01-27T00:51:15.802Z,10.10
2019-01-27T00:53:23.686Z,13.83
2019-01-27T00:55:34.487Z,10.17
2019-01-27T00:57:41.402Z,12.43
2019-01-27T00:59:50.334Z,14.47
2019-01-27T01:01:58.234Z,15.00
2019-01-27T01:04:06.473Z,12.27
2019-01-27T01:06:16.267Z,13.77
2019-01-27T01:08:24.278Z,14.73
2019-01-27T01:10:33.287Z,13.43
2019-01-27T01:12:41.478Z,16.47
2019-01-27T01:14:50.490Z,11.37
2019-01-27T01:17:02.376Z,15.13
2019-01-27T01:19:12.171Z,16.20
2019-01-27T01:21:19.631Z,17.77
2019-01-27T01:23:29.735Z,14.90
2019-01-27T01:25:40.231Z,15.17
2019-01-27T01:27:47.223Z,15.87
2019-01-27T01:29:58.039Z,11.97
2019-01-27T01:32:06.363Z,14.27
2019-01-27T01:34:16.375Z,13.90
2019-01-27T01:36:27.503Z,14.63
2019-01-27T01:38:38.687Z,14.90
2019-01-27T01:40:48.013Z,14.07
2019-01-27T01:42:56.970Z,17.63
2019-01-27T01:45:06.998Z,14.40
2019-01-27T01:47:17.315Z,13.10
2019-01-27T01:49:26.534Z,12.20
2019-01-27T01:51:35.612Z,16.97
2019-01-27T01:53:46.346Z,18.77
2019-01-27T01:55:49.975Z,13.40
2019-01-27T01:57:58.734Z,14.33
2019-01-27T02:00:08.982Z,14.17
2019-01-27T02:02:18.698Z,13.70
2019-01-27T02:04:28.554Z,12.47
2019-01-27T02:06:36.713Z,9.03
2019-01-27T02:08:58.287Z,15.50
2019-01-27T02:11:05.941Z,10.73
2019-01-27T02:15:17.747Z,12.80
2019-01-27T02:17:25.726Z,12.87
2019-01-27T02:19:32.062Z,13.00
2019-01-27T02:21:39.094Z,15.50
2019-01-27T02:23:45.927Z,9.73
2019-01-27T02:25:55.162Z,11.50
2019-01-27T02:28:05.766Z,11.97
2019-01-27T02:32:15.501Z,11.10
2019-01-27T02:34:23.870Z,12.80
2019-01-27T02:36:33.737Z,9.43
2019-01-27T02:38:47.246Z,12.13
2019-01-27T02:40:58.583Z,11.93
2019-01-27T02:45:20.666Z,13.43
2019-01-27T02:47:31.078Z,12.27
2019-01-27T02:49:43.005Z,13.23
2019-01-27T02:52:02.770Z,12.10
2019-01-27T02:54:11.803Z,6.73
2019-01-27T02:56:25.286Z,11.07
2019-01-27T02:58:30.691Z,12.37
2019-01-27T03:00:36.454Z,10.77
2019-01-27T03:04:49.387Z,12.87
2019-01-27T03:07:20.877Z,10.00
2019-01-27T03:09:39.130Z,9.60
2019-01-27T03:13:53.703Z,8.50
2019-01-27T03:16:02.619Z,8.23
2019-01-27T03:18:12.322Z,9.63
2019-01-27T03:20:24.206Z,10.57
2019-01-27T03:22:37.031Z,9.97
2019-01-27T03:26:51.540Z,11.63
2019-01-27T03:28:58.132Z,11.10
2019-01-27T03:31:06.627Z,12.03
2019-01-27T03:33:15.147Z,11.97
2019-01-27T03:35:26.992Z,10.40
2019-01-27T03:37:35.752Z,10.97
2019-01-27T03:39:45.159Z,9.80
2019-01-27T03:41:52.926Z,8.00
2019-01-27T03:44:03.771Z,9.60
2019-01-27T03:46:11.250Z,11.47
2019-01-27T03:48:19.974Z,9.90
2019-01-27T03:50:27.734Z,12.47
2019-01-27T03:52:38.532Z,11.30
2019-01-27T03:54:48.679Z,10.63
2019-01-27T03:56:57.702Z,9.37
2019-01-27T03:59:05.983Z,10.00
2019-01-27T04:01:14.387Z,7.60
2019-01-27T04:03:23.660Z,9.67
2019-01-27T04:05:33.747Z,11.07
2019-01-27T04:07:39.409Z,11.03
2019-01-27T04:09:47.012Z,9.07
2019-01-27T04:11:53.142Z,8.43
2019-01-27T04:14:04.358Z,7.07
2019-01-27T04:16:17.255Z,9.70
2019-01-27T04:18:28.448Z,10.07
2019-01-27T04:20:37.471Z,9.70
2019-01-27T04:22:47.238Z,7.13
2019-01-27T04:24:55.267Z,7.87
2019-01-27T04:27:07.590Z,10.13
2019-01-27T04:29:18.744Z,8.03
2019-01-27T04:31:26.987Z,11.07
2019-01-27T04:33:33.810Z,8.37
2019-01-27T04:37:46.981Z,8.53
2019-01-27T04:39:54.346Z,9.80
2019-01-27T04:42:03.654Z,10.03
2019-01-27T04:44:12.114Z,7.33
2019-01-27T04:46:20.043Z,9.43
2019-01-27T04:48:28.727Z,6.43
2019-01-27T04:50:36.686Z,9.40
2019-01-27T04:54:54.098Z,8.03
2019-01-27T04:57:02.869Z,7.80
2019-01-27T04:59:11.061Z,8.67
2019-01-27T05:01:18.119Z,8.17
2019-01-27T05:05:36.774Z,6.53
2019-01-27T05:07:53.223Z,6.23
2019-01-27T05:10:02.023Z,6.37
2019-01-27T05:12:10.024Z,4.47
2019-01-27T05:14:16.575Z,7.00
2019-01-27T05:16:25.356Z,5.77
2019-01-27T05:18:35.229Z,5.27
2019-01-27T05:20:45.000Z,5.30
2019-01-27T05:22:59.106Z,5.57
2019-01-27T05:25:11.852Z,5.57
2019-01-27T05:27:21.894Z,4.63
2019-01-27T05:29:32.140Z,5.23
2019-01-27T05:31:40.026Z,4.50
2019-01-27T05:33:48.840Z,4.63
2019-01-27T05:35:56.216Z,5.03
2019-01-27T05:38:06.870Z,2.90
2019-01-27T05:40:26.207Z,3.87
2019-01-27T05:42:36.267Z,5.10
2019-01-27T05:44:44.263Z,3.83
2019-01-27T05:46:52.087Z,3.17
2019-01-27T05:49:02.518Z,4.03
2019-01-27T05:51:10.409Z,4.20
2019-01-27T05:53:17.802Z,3.07
2019-01-27T05:55:26.320Z,2.53
2019-01-27T05:57:35.209Z,4.33
2019-01-27T05:59:42.502Z,3.30
2019-01-27T06:01:51.871Z,3.70
2019-01-27T06:04:01.163Z,3.90
2019-01-27T06:06:10.950Z,3.67
2019-01-27T06:08:23.399Z,3.53
2019-01-27T06:10:31.878Z,3.10
2019-01-27T06:12:40.726Z,4.10
2019-01-27T06:14:52.962Z,4.20
2019-01-27T06:17:03.213Z,2.73
2019-01-27T06:19:13.878Z,4.17
2019-01-27T06:21:22.799Z,3.80
2019-01-27T06:23:32.614Z,4.60
2019-01-27T06:25:41.558Z,3.03
2019-01-27T06:27:50.939Z,3.50
2019-01-27T06:29:59.891Z,4.47
2019-01-27T06:32:09.146Z,3.47
2019-01-27T06:34:21.430Z,3.53
2019-01-27T06:36:32.687Z,3.80
2019-01-27T06:38:41.446Z,4.17
2019-01-27T06:40:47.654Z,4.03
2019-01-27T06:42:55.039Z,4.17
2019-01-27T06:45:04.966Z,3.67
2019-01-27T06:47:15.976Z,4.77
2019-01-27T06:49:26.963Z,3.60
2019-01-27T06:51:36.051Z,3.20
2019-01-27T06:53:46.099Z,4.20
2019-01-27T06:55:56.170Z,4.13
2019-01-27T06:58:04.006Z,3.97
2019-01-27T07:00:30.747Z,4.33
2019-01-27T07:02:45.523Z,4.47
2019-01-27T07:05:10.280Z,3.90
2019-01-27T07:07:35.226Z,3.53
2019-01-27T07:09:57.902Z,4.67
2019-01-27T07:12:29.691Z,3.60
2019-01-27T07:14:53.414Z,3.70
2019-01-27T07:17:36.328Z,2.90
2019-01-27T07:19:57.846Z,3.50
2019-01-27T07:22:28.471Z,4.73
2019-01-27T07:24:56.679Z,4.20
2019-01-27T07:27:24.790Z,3.90
2019-01-27T07:29:44.154Z,4.17
2019-01-27T07:32:24.163Z,4.00
2019-01-27T07:35:05.130Z,3.50
2019-01-27T07:37:32.582Z,4.47
2019-01-27T07:39:55.142Z,3.43
2019-01-27T07:42:14.907Z,3.53
2019-01-27T07:44:29.650Z,4.13
2019-01-27T07:46:53.994Z,3.67
2019-01-27T07:49:28.683Z,3.83
2019-01-27T07:51:56.686Z,3.97
2019-01-27T07:54:26.729Z,3.30
2019-01-27T07:57:10.794Z,4.80
2019-01-27T07:59:29.786Z,3.50
2019-01-27T08:01:51.755Z,3.73
2019-01-27T08:04:20.490Z,4.27
2019-01-27T08:06:40.110Z,3.50
2019-01-27T08:09:03.014Z,3.13
2019-01-27T08:11:25.394Z,3.07
2019-01-27T08:13:52.530Z,3.77
2019-01-27T08:16:19.387Z,2.83
2019-01-27T08:18:39.036Z,3.33
2019-01-27T08:21:07.590Z,3.73
2019-01-27T08:23:39.243Z,3.43
2019-01-27T08:26:05.238Z,4.70
2019-01-27T08:28:33.841Z,4.70
2019-01-27T08:31:00.245Z,4.40
2019-01-27T08:33:30.612Z,3.83
2019-01-27T08:36:15.562Z,4.40
2019-01-27T08:38:45.103Z,4.47
2019-01-27T08:41:10.722Z,4.60
2019-01-27T08:43:40.592Z,4.53
2019-01-27T08:46:00.722Z,4.17
2019-01-27T08:48:09.687Z,5.20
2019-01-27T08:50:19.834Z,3.10
2019-01-27T08:52:26.281Z,4.33
2019-01-27T08:54:35.302Z,3.10
2019-01-27T08:56:45.486Z,3.57
2019-01-27T08:58:54.486Z,3.77
2019-01-27T09:01:30.147Z,4.07
2019-01-27T09:03:57.524Z,4.83
2019-01-27T09:06:26.262Z,4.60
2019-01-27T09:08:44.386Z,4.97
2019-01-27T09:11:02.735Z,4.57
2019-01-27T09:13:30.090Z,3.93
2019-01-27T09:15:59.472Z,4.60
2019-01-27T09:18:26.119Z,4.67
2019-01-27T09:20:59.348Z,3.00
2019-01-27T09:23:28.292Z,3.50
2019-01-27T09:26:04.345Z,3.60
2019-01-27T09:28:52.085Z,4.50
2019-01-27T09:31:18.311Z,3.60
2019-01-27T09:33:57.910Z,4.67
2019-01-27T09:36:37.295Z,4.00
2019-01-27T09:38:55.602Z,4.60
2019-01-27T09:41:37.799Z,3.50
2019-01-27T09:44:02.409Z,4.17
2019-01-27T09:46:29.000Z,4.63
2019-01-27T09:49:03.627Z,5.67
2019-01-27T09:51:29.291Z,4.60
2019-01-27T09:53:50.923Z,5.17
2019-01-27T09:56:18.614Z,5.17
2019-01-27T09:58:43.270Z,4.87
2019-01-27T10:01:22.034Z,4.83
2019-01-27T10:03:41.162Z,4.13
2019-01-27T10:06:10.835Z,5.40
2019-01-27T10:08:48.791Z,5.37
2019-01-27T10:11:26.545Z,3.70
2019-01-27T10:13:39.966Z,4.47
2019-01-27T10:16:14.675Z,5.27
2019-01-27T10:18:53.782Z,5.37
2019-01-27T10:21:19.538Z,4.97
2019-01-27T10:23:50.485Z,5.97
2019-01-27T10:26:16.102Z,4.57
2019-01-27T10:28:42.046Z,5.27
2019-01-27T10:31:10.850Z,6.40
2019-01-27T10:33:40.504Z,6.10
2019-01-27T10:36:21.773Z,6.53
2019-01-27T10:38:51.794Z,6.17
2019-01-27T10:41:13.000Z,6.23
2019-01-27T10:43:39.750Z,5.67
2019-01-27T10:45:56.930Z,6.10
2019-01-27T10:48:34.957Z,5.07
2019-01-27T10:51:05.618Z,5.53
2019-01-27T10:53:23.014Z,6.07
2019-01-27T10:55:50.031Z,7.03
2019-01-27T10:58:29.224Z,5.30
2019-01-27T11:01:00.141Z,5.47
2019-01-27T11:03:18.951Z,4.93
2019-01-27T11:05:46.379Z,5.87
2019-01-27T11:08:10.462Z,5.50
2019-01-27T11:10:40.587Z,4.53
2019-01-27T11:13:07.456Z,4.50
2019-01-27T11:15:26.790Z,5.47
2019-01-27T11:18:00.706Z,4.20
2019-01-27T11:20:39.947Z,4.03
2019-01-27T11:23:05.699Z,4.77
2019-01-27T11:25:33.179Z,4.67
2019-01-27T11:28:10.454Z,5.53
2019-01-27T11:30:38.282Z,5.30
2019-01-27T11:33:18.507Z,5.80
2019-01-27T11:35:44.727Z,6.27
2019-01-27T11:38:19.565Z,6.03
2019-01-27T11:40:47.738Z,5.87
2019-01-27T11:43:22.038Z,5.60
2019-01-27T11:45:43.495Z,5.63
2019-01-27T11:48:14.465Z,4.40
2019-01-27T11:50:36.230Z,4.73
2019-01-27T11:52:52.399Z,4.97
2019-01-27T11:55:02.528Z,6.13
2019-01-27T11:57:12.630Z,5.30
2019-01-27T11:59:19.914Z,5.37
2019-01-27T12:01:28.822Z,6.23
2019-01-27T12:03:38.442Z,5.90
2019-01-27T12:05:48.275Z,5.27
2019-01-27T12:08:03.014Z,4.33
2019-01-27T12:10:17.209Z,6.20
2019-01-27T12:12:26.215Z,5.50
2019-01-27T12:14:34.146Z,7.23
2019-01-27T12:16:42.727Z,6.90
2019-01-27T12:18:52.071Z,7.30
2019-01-27T12:21:01.970Z,5.97
2019-01-27T12:23:07.119Z,7.63
2019-01-27T12:25:18.426Z,8.20
2019-01-27T12:27:28.038Z,7.10
2019-01-27T12:29:35.886Z,7.13
2019-01-27T12:31:47.114Z,8.17
2019-01-27T12:33:56.541Z,7.63
2019-01-27T12:36:04.584Z,6.80
2019-01-27T12:38:14.761Z,7.60
2019-01-27T12:40:25.205Z,8.27
2019-01-27T12:42:33.606Z,8.70
2019-01-27T12:44:45.943Z,8.80
2019-01-27T12:46:51.636Z,7.80
2019-01-27T12:48:57.870Z,9.97
2019-01-27T12:51:03.234Z,8.93
2019-01-27T12:53:12.075Z,11.17
2019-01-27T12:55:20.790Z,8.80
2019-01-27T12:57:30.967Z,9.77
2019-01-27T12:59:40.030Z,10.17
2019-01-27T13:01:47.750Z,11.50
2019-01-27T13:03:55.847Z,9.77
2019-01-27T13:06:05.754Z,10.17
2019-01-27T13:08:15.593Z,10.60
2019-01-27T13:10:23.546Z,10.73
2019-01-27T13:12:30.712Z,10.57
2019-01-27T13:14:40.555Z,10.17
2019-01-27T13:16:47.368Z,11.90
2019-01-27T13:18:55.790Z,8.83
2019-01-27T13:21:04.586Z,11.97
2019-01-27T13:23:13.681Z,10.57
2019-01-27T13:25:23.078Z,7.87
2019-01-27T13:27:30.579Z,5.67
2019-01-27T13:29:36.170Z,11.50
2019-01-27T13:31:43.346Z,12.53
2019-01-27T13:33:50.746Z,11.97
2019-01-27T13:35:59.623Z,9.97
2019-01-27T13:38:07.894Z,12.00
2019-01-27T13:40:25.568Z,11.23
2019-01-27T13:42:38.422Z,10.43
2019-01-27T13:44:46.839Z,8.70
2019-01-27T13:46:56.587Z,9.70
2019-01-27T13:49:04.286Z,9.70
2019-01-27T13:51:14.187Z,11.10
2019-01-27T13:53:22.391Z,10.37
2019-01-27T13:55:33.030Z,9.57
2019-01-27T13:57:41.971Z,10.07
2019-01-27T13:59:51.557Z,9.47
2019-01-27T14:02:01.574Z,9.73
2019-01-27T14:04:09.128Z,8.73
2019-01-27T14:06:21.043Z,10.60
2019-01-27T14:08:28.399Z,10.63
2019-01-27T14:10:38.446Z,11.60
2019-01-27T14:12:48.334Z,12.07
2019-01-27T14:14:59.127Z,7.23
2019-01-27T14:17:08.076Z,12.07
2019-01-27T14:19:17.117Z,8.83
2019-01-27T14:21:25.847Z,9.63
2019-01-27T14:23:34.342Z,8.20
2019-01-27T14:25:43.335Z,8.73
2019-01-27T14:27:52.664Z,8.63
2019-01-27T14:30:04.860Z,9.33
2019-01-27T14:32:14.406Z,10.03
2019-01-27T14:34:23.391Z,9.67
2019-01-27T14:36:31.686Z,8.67
2019-01-27T14:38:42.344Z,8.70
2019-01-27T14:40:52.199Z,9.60
2019-01-27T14:43:02.652Z,8.20
2019-01-27T14:45:17.907Z,8.50
2019-01-27T14:47:25.270Z,8.60
2019-01-27T14:49:32.806Z,9.23
2019-01-27T14:51:41.707Z,9.20
2019-01-27T14:53:49.591Z,8.97
2019-01-27T14:55:54.910Z,8.47
2019-01-27T14:58:01.079Z,7.77
2019-01-27T15:00:13.014Z,9.17
2019-01-27T15:02:22.311Z,9.47
2019-01-27T15:04:33.986Z,9.60
2019-01-27T15:06:44.295Z,8.67
2019-01-27T15:08:57.096Z,9.80
2019-01-27T15:11:03.737Z,10.10
2019-01-27T15:13:10.519Z,10.10
2019-01-27T15:15:22.570Z,10.70
2019-01-27T15:17:32.391Z,10.53
2019-01-27T15:19:43.114Z,10.40
2019-01-27T15:21:51.496Z,9.77
2019-01-27T15:24:00.190Z,10.40
2019-01-27T15:26:09.531Z,12.07
2019-01-27T15:28:19.434Z,10.80
2019-01-27T15:30:32.522Z,13.07
2019-01-27T15:32:39.643Z,10.50
2019-01-27T15:34:52.131Z,11.10
2019-01-27T15:37:03.423Z,10.80
2019-01-27T15:39:13.928Z,12.53
2019-01-27T15:41:20.812Z,12.73
2019-01-27T15:43:29.467Z,12.80
2019-01-27T15:45:38.390Z,13.00
2019-01-27T15:47:45.979Z,12.77
2019-01-27T15:49:52.827Z,11.90
2019-01-27T15:52:01.770Z,12.57
2019-01-27T15:54:11.724Z,13.93
2019-01-27T15:56:21.862Z,13.73
2019-01-27T15:58:32.648Z,14.83
2019-01-27T16:00:41.080Z,14.03
2019-01-27T16:02:49.993Z,14.67
2019-01-27T16:04:57.390Z,13.77
2019-01-27T16:07:04.148Z,13.00
2019-01-27T16:09:11.922Z,15.17
2019-01-27T16:11:20.844Z,14.20
2019-01-27T16:13:30.067Z,13.67
2019-01-27T16:15:37.730Z,13.70
2019-01-27T16:17:47.494Z,13.90
2019-01-27T16:19:55.678Z,13.97
2019-01-27T16:22:08.695Z,13.37
2019-01-27T16:24:37.517Z,13.13
2019-01-27T16:26:43.287Z,12.77
2019-01-27T16:28:49.939Z,14.17
2019-01-27T16:31:22.331Z,13.53
2019-01-27T16:33:39.498Z,15.13
2019-01-27T16:35:47.376Z,15.80
2019-01-27T16:37:57.299Z,16.30
2019-01-27T16:40:07.916Z,14.47
2019-01-27T16:42:18.818Z,14.70
2019-01-27T16:44:28.855Z,14.63
2019-01-27T16:46:38.238Z,16.33
2019-01-27T16:48:48.103Z,14.63
2019-01-27T16:50:58.474Z,15.60
2019-01-27T16:53:07.387Z,15.47
2019-01-27T16:55:20.276Z,14.33
2019-01-27T16:57:29.118Z,14.90
2019-01-27T16:59:38.005Z,15.40
2019-01-27T17:01:50.081Z,16.70
2019-01-27T17:04:00.683Z,15.53
2019-01-27T17:06:10.775Z,15.53
2019-01-27T17:08:18.267Z,14.23
2019-01-27T17:10:30.862Z,15.67
2019-01-27T17:12:40.742Z,12.57
2019-01-27T17:14:52.262Z,15.23
2019-01-27T17:17:05.238Z,15.00
2019-01-27T17:19:13.163Z,16.20
2019-01-27T17:21:22.038Z,14.57
2019-01-27T17:23:33.810Z,15.07
2019-01-27T17:25:43.654Z,14.03
2019-01-27T17:27:54.439Z,15.13
2019-01-27T17:30:03.547Z,16.17
2019-01-27T17:32:12.367Z,16.57
2019-01-27T17:34:24.635Z,15.70
2019-01-27T17:36:32.372Z,14.77
2019-01-27T17:38:42.183Z,15.87
2019-01-27T17:40:53.355Z,16.50
2019-01-27T17:43:03.339Z,15.90
2019-01-27T17:45:16.214Z,16.43
2019-01-27T17:47:29.255Z,15.97
2019-01-27T17:49:38.738Z,15.67
2019-01-27T17:51:48.311Z,17.60
2019-01-27T17:53:58.510Z,17.33
2019-01-27T17:56:07.613Z,14.13
2019-01-27T17:58:53.656Z,13.77
2019-01-27T18:01:08.679Z,14.67
2019-01-27T18:03:34.164Z,15.53
2019-01-27T18:06:01.340Z,16.33
2019-01-27T18:08:16.685Z,16.03
2019-01-27T18:10:49.912Z,15.27
2019-01-27T18:13:20.735Z,15.63
2019-01-27T18:15:32.055Z,16.90
2019-01-27T18:17:40.849Z,15.97
2019-01-27T18:19:49.754Z,17.47
2019-01-27T18:21:58.054Z,14.90
2019-01-27T18:24:06.939Z,17.60
2019-01-27T18:26:17.468Z,18.30
2019-01-27T18:28:29.448Z,17.83
2019-01-27T18:30:42.615Z,17.10
2019-01-27T18:32:55.287Z,17.17
2019-01-27T18:35:08.222Z,16.70
2019-01-27T18:37:15.796Z,17.77
2019-01-27T18:39:25.497Z,18.90
2019-01-27T18:41:34.593Z,16.87
2019-01-27T18:43:43.577Z,19.10
2019-01-27T18:45:59.659Z,19.17
2019-01-27T18:48:08.294Z,18.60
2019-01-27T18:50:18.986Z,18.17
2019-01-27T18:52:31.202Z,20.73
2019-01-27T18:55:11.071Z,20.03
2019-01-27T18:57:26.047Z,18.37
2019-01-27T18:59:47.635Z,20.83
2019-01-27T19:02:24.732Z,20.37
2019-01-27T19:04:40.043Z,20.70
2019-01-27T19:07:05.903Z,18.93
2019-01-27T19:09:53.751Z,19.87
2019-01-27T19:12:19.459Z,20.20
2019-01-27T19:14:55.192Z,19.67
2019-01-27T19:17:25.794Z,17.70
2019-01-27T19:20:01.174Z,20.47
2019-01-27T19:22:32.990Z,19.07
2019-01-27T19:25:17.915Z,19.63
2019-01-27T19:27:48.635Z,18.20
2019-01-27T19:30:18.210Z,19.07
2019-01-27T19:32:42.447Z,17.33
2019-01-27T19:35:21.420Z,14.40
2019-01-27T19:37:50.575Z,19.33
2019-01-27T19:40:10.867Z,20.90
2019-01-27T19:42:38.792Z,19.43
2019-01-27T19:45:07.949Z,20.13
2019-01-27T19:47:33.191Z,22.27
2019-01-27T19:50:18.531Z,21.30
2019-01-27T19:52:44.339Z,20.57
2019-01-27T19:55:16.032Z,19.37
2019-01-27T19:57:34.022Z,20.80
2019-01-27T20:00:00.311Z,23.67
2019-01-27T20:02:24.896Z,21.40
2019-01-27T20:04:47.994Z,18.40
2019-01-27T20:07:05.127Z,21.07
2019-01-27T20:09:32.375Z,23.10
2019-01-27T20:11:57.140Z,22.27
2019-01-27T20:14:15.433Z,21.67
2019-01-27T20:16:42.081Z,21.50
2019-01-27T20:19:14.094Z,22.57
2019-01-27T20:21:38.190Z,21.97
2019-01-27T20:24:06.180Z,21.47
2019-01-27T20:26:20.723Z,22.47
2019-01-27T20:29:05.966Z,21.97
2019-01-27T20:31:31.773Z,20.77
2019-01-27T20:34:16.207Z,21.93
2019-01-27T20:36:34.570Z,15.47
2019-01-27T20:38:54.180Z,19.63
2019-01-27T20:41:15.242Z,19.77
2019-01-27T20:43:43.123Z,21.23
2019-01-27T20:45:59.459Z,20.30
2019-01-27T20:48:24.119Z,20.30
2019-01-27T20:50:47.439Z,20.73
2019-01-27T20:53:15.983Z,19.00
2019-01-27T20:55:39.251Z,19.23
2019-01-27T20:58:17.888Z,19.23
2019-01-27T21:00:43.380Z,19.33
2019-01-27T21:03:08.983Z,19.93
2019-01-27T21:05:29.490Z,18.83
2019-01-27T21:08:09.582Z,18.23
2019-01-27T21:10:48.240Z,18.37
2019-01-27T21:13:20.531Z,17.23
2019-01-27T21:15:45.738Z,19.67
2019-01-27T21:18:09.252Z,18.03
2019-01-27T21:20:21.064Z,17.50
2019-01-27T21:22:29.928Z,17.93
2019-01-27T21:24:40.704Z,18.90
2019-01-27T21:26:57.003Z,19.03
2019-01-27T21:29:06.849Z,18.23
2019-01-27T21:31:16.723Z,16.53
2019-01-27T21:33:24.630Z,17.73
2019-01-27T21:35:34.418Z,19.93
2019-01-27T21:37:44.448Z,17.63
2019-01-27T21:39:55.046Z,18.20
2019-01-27T21:42:06.861Z,16.80
2019-01-27T21:44:15.142Z,18.00
2019-01-27T21:46:23.455Z,17.83
2019-01-27T21:48:32.617Z,18.13
2019-01-27T21:50:45.312Z,16.27
2019-01-27T21:52:55.193Z,19.03
2019-01-27T21:55:03.479Z,17.20
2019-01-27T21:57:12.759Z,16.70
2019-01-27T21:59:23.467Z,16.87
2019-01-27T22:01:31.557Z,17.50
2019-01-27T22:03:42.428Z,17.37
2019-01-27T22:05:53.355Z,16.23
2019-01-27T22:08:02.249Z,15.93
2019-01-27T22:10:13.498Z,15.47
2019-01-27T22:12:21.943Z,17.17
2019-01-27T22:14:30.742Z,15.77
2019-01-27T22:16:42.047Z,17.37
2019-01-27T22:18:54.627Z,15.03
2019-01-27T22:21:04.731Z,16.30
2019-01-27T22:23:12.658Z,16.57
2019-01-27T22:25:23.457Z,15.07
2019-01-27T22:27:33.578Z,15.30
2019-01-27T22:29:40.351Z,16.23
2019-01-27T22:31:47.627Z,15.53
2019-01-27T22:33:59.463Z,16.43
2019-01-27T22:36:08.090Z,16.07
2019-01-27T22:38:17.959Z,15.47
2019-01-27T22:40:31.639Z,15.67
2019-01-27T22:42:40.551Z,15.80
2019-01-27T22:44:47.469Z,16.73
2019-01-27T22:46:54.118Z,14.77
2019-01-27T22:49:00.828Z,17.53
2019-01-27T22:51:08.790Z,16.03
2019-01-27T22:53:17.879Z,15.57
2019-01-27T22:55:25.941Z,16.73
2019-01-27T22:57:35.206Z,15.90
2019-01-27T22:59:43.563Z,15.23
2019-01-27T23:01:52.070Z,16.63
2019-01-27T23:04:01.786Z,15.60
2019-01-27T23:06:12.674Z,16.20
2019-01-27T23:08:22.638Z,15.57
2019-01-27T23:10:29.787Z,15.43
2019-01-27T23:12:41.479Z,14.10
2019-01-27T23:14:52.523Z,15.50
2019-01-27T23:17:01.158Z,16.17
2019-01-27T23:19:16.146Z,15.17
2019-01-27T23:21:27.062Z,16.33
2019-01-27T23:23:38.026Z,15.07
2019-01-27T23:25:45.882Z,13.97
2019-01-27T23:27:53.336Z,14.10
2019-01-27T23:30:02.603Z,14.07
2019-01-27T23:32:11.942Z,13.70
2019-01-27T23:34:20.775Z,12.30
2019-01-27T23:36:29.102Z,14.63
2019-01-27T23:38:38.862Z,14.57
2019-01-27T23:40:49.194Z,12.67
2019-01-27T23:42:58.952Z,14.00
2019-01-27T23:45:09.198Z,14.73
2019-01-27T23:47:22.058Z,14.40
2019-01-27T23:49:30.342Z,15.07
2019-01-27T23:51:38.870Z,15.57
2019-01-27T23:53:46.476Z,14.77
2019-01-27T23:55:54.550Z,17.33
2019-01-27T23:58:06.215Z,17.47
